Time;durP1;ratioP1;P1;durP2;ratioP2;P2;SDS_P1;SDS_P2;PMS_P1;PMS_P2;Temp;Humidity;BMP_temperature;BMP_pressure;BME280_temperature;BME280_humidity;BME280_pressure;Samples;Min_cycle;Max_cycle;Signal;HPM_P1;HPM_P2
2022/07/24 00:02:08;;;;;;;6.05;3.17;;;;;;;24.42;52.74;98994.75;5013994;28;20352;-72
2022/07/24 00:04:56;;;;;;;5.28;3.60;;;;;;;24.42;54.90;98992.06;5014819;28;20049;-72
2022/07/24 00:07:41;;;;;;;4.82;3.30;;;;;;;24.43;54.58;98985.69;5013543;28;20449;-71
2022/07/24 00:10:26;;;;;;;3.63;2.80;;;;;;;24.28;53.43;98979.56;5026400;28;20077;-72
2022/07/24 00:13:11;;;;;;;4.90;3.35;;;;;;;24.22;55.29;98981.16;5024119;28;20045;-72
2022/07/24 00:15:55;;;;;;;3.83;2.80;;;;;;;24.26;55.40;98970.91;5015103;28;20505;-73
2022/07/24 00:18:40;;;;;;;6.68;3.28;;;;;;;24.21;53.62;98963.44;5013929;28;20037;-72
2022/07/24 00:21:25;;;;;;;3.97;2.75;;;;;;;24.08;54.25;98970.28;5026723;28;20064;-73
2022/07/24 00:24:10;;;;;;;4.53;2.83;;;;;;;24.09;55.84;98965.78;5011860;28;20064;-73
2022/07/24 00:26:54;;;;;;;4.60;2.95;;;;;;;23.99;54.65;98960.72;5012986;28;20033;-71
2022/07/24 00:29:39;;;;;;;5.55;3.42;;;;;;;23.85;54.66;98967.75;5012835;28;20347;-71
2022/07/24 00:32:24;;;;;;;3.70;2.75;;;;;;;23.75;55.76;98965.34;5023077;28;20129;-72
2022/07/24 00:35:09;;;;;;;5.85;3.13;;;;;;;23.87;56.17;98968.38;5025277;28;20387;-72
2022/07/24 00:37:53;;;;;;;5.72;3.38;;;;;;;23.79;56.34;98965.81;5012086;28;20038;-72
2022/07/24 00:40:39;;;;;;;4.78;2.85;;;;;;;23.68;56.48;98964.47;5013549;28;20444;-72
2022/07/24 00:43:24;;;;;;;6.40;3.20;;;;;;;23.54;59.08;98960.78;5012528;28;20049;-72
2022/07/24 00:46:09;;;;;;;4.25;2.85;;;;;;;23.54;56.27;98961.59;5012231;28;20131;-71
2022/07/24 00:48:54;;;;;;;5.45;3.25;;;;;;;23.45;57.79;98960.84;5012923;28;20113;-71
2022/07/24 00:51:41;;;;;;;5.22;3.05;;;;;;;23.47;56.71;98971.41;5012137;28;20084;-72
2022/07/24 00:54:26;;;;;;;6.40;2.78;;;;;;;23.65;57.26;98960.28;5013107;28;20034;-71
2022/07/24 00:57:10;;;;;;;4.70;2.78;;;;;;;23.67;56.91;98963.63;5011433;28;20129;-72
2022/07/24 00:59:56;;;;;;;4.45;3.00;;;;;;;23.50;57.21;98963.81;5011554;28;20037;-71
2022/07/24 01:02:41;;;;;;;4.13;2.92;;;;;;;23.30;57.72;98958.19;5000446;28;20049;-72
2022/07/24 01:05:26;;;;;;;4.63;3.13;;;;;;;23.34;58.73;98953.31;5025118;28;20426;-72
2022/07/24 01:08:11;;;;;;;5.57;3.20;;;;;;;23.39;57.51;98950.91;5012735;28;20502;-72
2022/07/24 01:10:56;;;;;;;3.90;3.05;;;;;;;23.46;57.67;98938.47;5011401;28;20065;-72
2022/07/24 01:13:42;;;;;;;5.18;3.20;;;;;;;23.43;59.54;98948.72;5011181;28;20093;-73
2022/07/24 01:16:26;;;;;;;6.65;3.67;;;;;;;23.54;59.80;98940.22;5012128;28;20050;-73
2022/07/24 01:19:11;;;;;;;4.28;3.08;;;;;;;23.46;58.29;98946.50;5026465;28;20099;-72
2022/07/24 01:21:56;;;;;;;4.43;2.65;;;;;;;23.42;59.43;98958.56;5014781;28;20120;-71
2022/07/24 01:24:41;;;;;;;4.47;2.90;;;;;;;23.26;58.85;98956.88;5012638;28;20042;-72
2022/07/24 01:27:26;;;;;;;5.95;3.70;;;;;;;23.00;59.36;98952.78;5011402;28;20030;-72
2022/07/24 01:30:11;;;;;;;6.13;3.60;;;;;;;22.87;60.58;98956.94;5011933;28;20072;-71
2022/07/24 01:32:55;;;;;;;3.83;2.80;;;;;;;22.70;60.99;98948.22;5011041;28;20056;-71
2022/07/24 01:35:41;;;;;;;4.70;3.10;;;;;;;22.76;62.66;98958.19;5010877;28;20049;-71
2022/07/24 01:38:26;;;;;;;4.78;3.22;;;;;;;22.81;60.92;98956.81;5011151;28;20091;-72
2022/07/24 01:41:11;;;;;;;5.30;3.20;;;;;;;22.59;62.96;98953.94;4997927;28;20079;-72
2022/07/24 01:43:56;;;;;;;5.68;3.55;;;;;;;22.52;62.55;98957.34;5011953;28;20045;-73
2022/07/24 01:46:40;;;;;;;7.53;3.72;;;;;;;22.50;62.41;98954.03;5011332;28;20068;-72
2022/07/24 01:49:25;;;;;;;5.57;3.25;;;;;;;22.55;63.07;98952.66;5011538;28;20376;-73
2022/07/24 01:52:10;;;;;;;5.40;3.17;;;;;;;22.54;64.59;98956.34;5011606;28;20042;-72
2022/07/24 01:54:54;;;;;;;8.93;3.38;;;;;;;22.56;63.84;98946.31;5012060;28;20046;-72
2022/07/24 01:57:39;;;;;;;4.30;3.50;;;;;;;22.31;66.04;98950.00;5010977;28;20065;-73
2022/07/24 02:00:24;;;;;;;6.25;3.42;;;;;;;22.44;63.85;98946.72;5024976;28;20064;-73
2022/07/24 02:03:09;;;;;;;6.05;3.55;;;;;;;22.20;64.42;98943.22;5011106;28;20390;-73
2022/07/24 02:05:53;;;;;;;4.78;3.33;;;;;;;22.19;64.93;98938.91;5011158;28;20060;-67
2022/07/24 02:08:38;;;;;;;6.95;3.30;;;;;;;22.20;65.07;98935.22;5000753;28;20497;-73
2022/07/24 02:11:23;;;;;;;8.38;3.63;;;;;;;22.20;65.11;98939.72;5010844;28;20035;-73
2022/07/24 02:14:07;;;;;;;5.68;3.83;;;;;;;22.14;65.11;98941.28;5011061;28;20045;-71
2022/07/24 02:16:52;;;;;;;6.63;3.42;;;;;;;22.09;65.72;98938.31;5011637;28;20037;-73
2022/07/24 02:19:37;;;;;;;7.18;3.55;;;;;;;22.20;65.52;98940.56;5013954;28;20037;-71
2022/07/24 02:22:21;;;;;;;5.70;3.45;;;;;;;22.36;64.85;98944.16;5010926;28;20456;-72
2022/07/24 02:25:07;;;;;;;7.22;3.50;;;;;;;22.38;64.50;98936.78;4998099;28;20061;-72
2022/07/24 02:27:51;;;;;;;6.03;3.53;;;;;;;22.54;65.77;98943.00;5011963;28;20395;-72
2022/07/24 02:30:36;;;;;;;6.82;3.53;;;;;;;22.57;64.94;98942.66;5009547;28;20081;-72
2022/07/24 02:33:21;;;;;;;4.85;3.75;;;;;;;22.62;64.03;98942.97;5011700;28;20557;-70
2022/07/24 02:36:05;;;;;;;4.80;3.28;;;;;;;22.57;64.90;98946.13;5016448;28;20041;-72
2022/07/24 02:38:51;;;;;;;6.38;3.42;;;;;;;22.35;64.88;98950.47;5016423;28;20372;-72
2022/07/24 02:41:36;;;;;;;5.72;3.20;;;;;;;22.30;65.74;98947.50;5010931;28;20042;-72
2022/07/24 02:44:20;;;;;;;5.68;3.38;;;;;;;22.23;65.99;98945.53;5010624;28;20064;-72
2022/07/24 02:47:05;;;;;;;5.05;3.40;;;;;;;22.24;65.71;98944.56;5010726;28;20493;-71
2022/07/24 02:49:50;;;;;;;6.28;4.00;;;;;;;22.22;65.36;98943.06;4997834;28;20034;-73
2022/07/24 02:52:34;;;;;;;5.53;4.07;;;;;;;21.96;67.56;98953.06;5011163;28;20455;-67
2022/07/24 02:55:19;;;;;;;6.00;3.85;;;;;;;21.73;67.32;98955.63;5022136;28;20366;-69
2022/07/24 02:58:04;;;;;;;6.97;4.25;;;;;;;21.63;67.37;98961.16;4999005;28;20489;-73
2022/07/24 03:00:48;;;;;;;7.15;3.60;;;;;;;21.50;68.73;98962.56;4995965;28;20113;-71
2022/07/24 03:03:33;;;;;;;6.65;3.58;;;;;;;21.62;68.23;98965.69;5005763;28;20482;-71
2022/07/24 03:06:18;;;;;;;7.68;4.15;;;;;;;21.55;69.24;98956.69;5010656;28;20029;-72
2022/07/24 03:09:03;;;;;;;6.78;3.80;;;;;;;21.52;69.08;98960.56;5011165;28;20089;-73
2022/07/24 03:11:47;;;;;;;5.40;4.03;;;;;;;21.51;70.48;98969.53;5009728;28;20124;-71
2022/07/24 03:14:32;;;;;;;6.38;4.13;;;;;;;21.41;70.52;98977.72;5009895;28;20060;-71
2022/07/24 03:17:17;;;;;;;5.53;4.57;;;;;;;21.46;70.65;98981.72;5010099;28;20490;-71
2022/07/24 03:20:03;;;;;;;8.68;5.07;;;;;;;21.27;71.41;98978.41;4995919;28;20061;-72
2022/07/24 03:22:49;;;;;;;5.63;4.40;;;;;;;21.27;71.82;98987.25;5010246;28;20096;-72
2022/07/24 03:25:34;;;;;;;7.20;4.43;;;;;;;21.20;72.17;98986.25;5010910;28;20042;-71
2022/07/24 03:28:18;;;;;;;6.50;4.65;;;;;;;21.17;72.64;98992.75;5023647;28;20060;-72
2022/07/24 03:31:03;;;;;;;5.90;4.25;;;;;;;21.27;73.36;98997.91;5010644;28;20394;-71
2022/07/24 03:33:48;;;;;;;5.63;4.28;;;;;;;21.26;72.80;98996.25;5011810;28;20095;-72
2022/07/24 03:36:33;;;;;;;7.57;4.85;;;;;;;21.10;73.68;98996.28;5018837;28;20038;-72
2022/07/24 03:39:17;;;;;;;6.40;4.78;;;;;;;21.18;73.69;99004.25;5008304;28;20046;-70
2022/07/24 03:42:03;;;;;;;6.78;4.88;;;;;;;20.98;74.82;99009.94;5016416;28;20069;-71
2022/07/24 03:44:47;;;;;;;9.77;5.40;;;;;;;21.00;74.12;99001.78;5013953;28;20034;-73
2022/07/24 03:47:33;;;;;;;7.70;4.65;;;;;;;20.84;75.50;99008.72;5019668;28;20104;-72
2022/07/24 03:50:17;;;;;;;7.57;4.93;;;;;;;20.91;74.73;99009.72;5008547;28;20038;-73
2022/07/24 03:53:02;;;;;;;6.90;4.43;;;;;;;20.96;74.84;99005.75;5018315;28;20430;-74
2022/07/24 03:55:46;;;;;;;6.47;5.05;;;;;;;20.86;74.98;99027.22;5012696;28;20041;-72
2022/07/24 03:58:32;;;;;;;6.53;4.43;;;;;;;20.81;75.82;99011.72;5013799;28;20041;-73
2022/07/24 04:01:16;;;;;;;9.07;4.60;;;;;;;20.76;75.82;99017.53;5005710;28;20061;-71
2022/07/24 04:04:04;;;;;;;7.55;4.97;;;;;;;20.76;76.04;99020.19;5007170;28;20053;-72
2022/07/24 04:06:49;;;;;;;7.30;5.03;;;;;;;20.79;76.19;99019.06;5014766;28;20041;-71
2022/07/24 04:09:33;;;;;;;7.43;5.50;;;;;;;20.81;75.86;99025.03;4999461;28;20069;-72
2022/07/24 04:12:18;;;;;;;6.70;4.93;;;;;;;20.77;75.91;99029.88;5025039;28;20041;-72
2022/07/24 04:15:03;;;;;;;8.10;5.25;;;;;;;20.77;76.32;99029.88;5012977;28;20042;-72
2022/07/24 04:17:48;;;;;;;6.97;5.38;;;;;;;20.76;76.66;99030.03;5008994;28;20040;-72
2022/07/24 04:20:33;;;;;;;7.18;4.82;;;;;;;20.75;76.28;99023.03;4988383;28;20467;-71
2022/07/24 04:23:17;;;;;;;8.57;5.25;;;;;;;20.78;76.81;99023.53;5013410;28;20099;-72
2022/07/24 04:26:03;;;;;;;7.13;5.32;;;;;;;20.77;75.99;99027.22;5013906;28;20073;-72
2022/07/24 04:28:48;;;;;;;9.77;5.53;;;;;;;20.78;76.50;99025.34;5011652;28;20076;-73
2022/07/24 04:31:33;;;;;;;7.05;5.05;;;;;;;20.73;76.46;99041.81;5017430;28;20060;-72
2022/07/24 04:34:18;;;;;;;8.15;5.03;;;;;;;20.74;76.62;99038.19;5012878;28;20386;-73
2022/07/24 04:37:03;;;;;;;9.48;5.30;;;;;;;20.79;76.84;99043.81;5001051;28;20049;-73
2022/07/24 04:39:48;;;;;;;9.30;5.75;;;;;;;20.76;76.88;99043.34;5012915;28;20038;-72
2022/07/24 04:42:32;;;;;;;12.10;5.55;;;;;;;20.71;77.19;99040.34;4999842;28;20447;-74
2022/07/24 04:45:17;;;;;;;11.00;5.72;;;;;;;20.65;77.55;99044.47;5012411;28;20418;-73
2022/07/24 04:48:02;;;;;;;8.20;5.38;;;;;;;20.77;77.18;99045.00;5026022;28;20042;-74
2022/07/24 04:50:46;;;;;;;7.80;5.47;;;;;;;20.72;77.47;99048.16;5025548;28;20052;-73
2022/07/24 04:53:31;;;;;;;8.65;5.93;;;;;;;20.63;78.76;99052.63;5012136;28;20095;-73
2022/07/24 04:56:16;;;;;;;9.00;5.93;;;;;;;20.79;77.89;99056.31;5000862;28;20180;-74
2022/07/24 04:59:01;;;;;;;7.22;5.38;;;;;;;21.01;76.99;99051.34;5015632;28;20045;-74
2022/07/24 05:01:46;;;;;;;9.00;5.80;;;;;;;20.97;77.86;99055.38;5014872;28;20042;-72
2022/07/24 05:04:31;;;;;;;9.15;5.72;;;;;;;21.04;77.30;99059.00;5025504;28;20057;-73
2022/07/24 05:07:15;;;;;;;11.75;6.20;;;;;;;20.90;78.80;99064.00;5025108;28;20530;-73
2022/07/24 05:10:00;;;;;;;7.70;5.75;;;;;;;20.86;78.45;99064.47;5012919;28;20030;-73
2022/07/24 05:12:45;;;;;;;8.90;5.88;;;;;;;20.90;78.23;99066.66;5012773;28;20042;-72
2022/07/24 05:15:30;;;;;;;9.85;6.75;;;;;;;21.10;77.54;99065.50;5025392;28;20498;-73
2022/07/24 05:18:14;;;;;;;9.32;6.07;;;;;;;21.11;78.40;99083.16;5008760;28;20096;-71
2022/07/24 05:20:58;;;;;;;8.07;5.78;;;;;;;20.98;78.26;99075.66;5007437;28;20065;-71
2022/07/24 05:23:43;;;;;;;10.40;5.57;;;;;;;21.12;78.44;99074.19;5012265;28;20047;-72
2022/07/24 05:26:31;;;;;;;9.48;6.65;;;;;;;21.08;78.10;99086.16;5010704;28;20058;-72
2022/07/24 05:29:16;;;;;;;9.65;6.00;;;;;;;20.98;78.85;99081.81;5011386;28;20042;-73
2022/07/24 05:32:01;;;;;;;9.00;5.90;;;;;;;21.03;78.98;99092.81;5011705;28;20049;-74
2022/07/24 05:34:46;;;;;;;10.00;6.03;;;;;;;21.16;77.58;99088.81;5011750;28;20095;-73
2022/07/24 05:37:30;;;;;;;10.52;6.43;;;;;;;21.29;77.00;99097.13;4998861;28;20042;-72
2022/07/24 05:40:15;;;;;;;10.63;6.60;;;;;;;21.35;77.06;99102.81;5011578;28;20041;-72
2022/07/24 05:43:00;;;;;;;8.77;5.93;;;;;;;21.65;78.16;99111.09;5011198;28;20066;-72
2022/07/24 05:45:45;;;;;;;9.40;5.95;;;;;;;21.82;75.54;99111.91;5011720;28;20046;-71
2022/07/24 05:48:29;;;;;;;11.38;5.65;;;;;;;21.78;75.46;99108.78;5011675;28;20096;-72
2022/07/24 05:51:14;;;;;;;10.88;6.70;;;;;;;21.81;74.72;99112.06;5000280;28;20065;-72
2022/07/24 05:53:59;;;;;;;10.80;6.80;;;;;;;21.64;75.75;99126.25;5011037;28;20055;-73
2022/07/24 05:56:43;;;;;;;10.52;6.55;;;;;;;22.06;75.08;99126.19;5010087;28;20042;-72
2022/07/24 05:59:28;;;;;;;8.65;6.78;;;;;;;22.35;73.71;99122.06;5010577;28;20072;-74
2022/07/24 06:02:14;;;;;;;7.82;5.85;;;;;;;22.40;73.47;99126.88;4996960;28;20425;-71
2022/07/24 06:04:59;;;;;;;9.40;6.35;;;;;;;22.29;73.59;99133.44;5020064;28;20066;-73
2022/07/24 06:07:44;;;;;;;9.23;5.30;;;;;;;22.76;73.30;99126.41;5011322;28;20033;-73
2022/07/24 06:10:28;;;;;;;10.40;6.05;;;;;;;22.86;71.68;99133.34;5012011;28;20398;-73
2022/07/24 06:13:13;;;;;;;8.63;6.43;;;;;;;22.76;70.91;99130.91;4999428;28;20036;-72
2022/07/24 06:15:58;;;;;;;9.60;6.03;;;;;;;22.95;71.55;99136.78;5011223;28;20058;-72
2022/07/24 06:18:42;;;;;;;7.38;5.93;;;;;;;23.28;70.17;99133.03;5011863;28;20041;-72
2022/07/24 06:21:27;;;;;;;8.93;6.55;;;;;;;23.43;69.36;99135.78;5011344;28;20076;-72
2022/07/24 06:24:11;;;;;;;8.60;5.90;;;;;;;23.32;69.14;99137.03;5011019;28;20251;-71
2022/07/24 06:26:56;;;;;;;8.15;6.03;;;;;;;23.49;69.31;99138.56;5010623;28;20038;-71
2022/07/24 06:29:41;;;;;;;9.50;6.35;;;;;;;23.26;68.29;99128.72;5011030;28;20335;-71
2022/07/24 06:32:26;;;;;;;10.07;6.68;;;;;;;23.15;69.60;99129.13;4999574;28;20127;-72
2022/07/24 06:35:12;;;;;;;9.90;6.93;;;;;;;23.29;69.51;99135.53;5010846;28;20038;-72
2022/07/24 06:37:56;;;;;;;11.25;5.97;;;;;;;23.80;67.96;99143.97;5011619;28;20073;-73
2022/07/24 06:40:41;;;;;;;9.30;6.55;;;;;;;23.64;67.43;99137.78;5010788;28;20087;-71
2022/07/24 06:43:26;;;;;;;8.75;6.47;;;;;;;23.21;69.75;99141.78;5010580;28;20471;-70
2022/07/24 06:46:11;;;;;;;9.27;6.82;;;;;;;23.52;68.04;99153.41;5012864;28;20120;-73
2022/07/24 06:48:55;;;;;;;9.93;6.32;;;;;;;24.12;66.57;99147.31;4996201;28;20049;-72
2022/07/24 06:51:40;;;;;;;9.05;6.03;;;;;;;24.08;69.11;99151.38;5010409;28;20038;-73
2022/07/24 06:54:25;;;;;;;8.63;6.55;;;;;;;24.51;64.78;99144.53;5023919;28;20040;-74
2022/07/24 06:57:10;;;;;;;9.32;6.63;;;;;;;24.39;66.23;99146.84;5010522;28;20041;-73
2022/07/24 06:59:54;;;;;;;9.32;6.28;;;;;;;24.52;65.83;99156.91;5010430;28;20454;-73
2022/07/24 07:02:39;;;;;;;11.18;7.30;;;;;;;24.67;63.30;99157.72;5011226;28;20379;-70
2022/07/24 07:05:24;;;;;;;7.78;5.93;;;;;;;24.30;64.87;99160.34;5013991;28;20446;-72
2022/07/24 07:08:08;;;;;;;9.70;6.78;;;;;;;24.55;63.84;99151.16;5020068;28;20072;-71
2022/07/24 07:10:53;;;;;;;8.10;5.97;;;;;;;24.12;64.40;99145.47;5014197;28;20038;-72
2022/07/24 07:13:38;;;;;;;9.98;6.45;;;;;;;24.51;64.64;99150.72;5014193;28;20042;-72
2022/07/24 07:16:23;;;;;;;8.45;6.28;;;;;;;25.01;62.69;99157.25;5013842;28;20057;-73
2022/07/24 07:19:07;;;;;;;10.23;6.82;;;;;;;25.80;61.27;99141.25;5014289;28;20053;-73
2022/07/24 07:21:53;;;;;;;9.23;6.53;;;;;;;26.23;57.77;99150.97;5014167;28;20053;-71
2022/07/24 07:24:37;;;;;;;9.38;6.57;;;;;;;26.30;57.77;99146.50;5014819;28;20478;-71
2022/07/24 07:27:22;;;;;;;7.43;5.65;;;;;;;26.19;58.16;99144.38;5002858;28;20042;-71
2022/07/24 07:30:09;;;;;;;8.05;6.05;;;;;;;26.86;56.37;99141.13;5013307;28;20474;-72
2022/07/24 07:32:53;;;;;;;7.43;5.85;;;;;;;27.11;56.82;99145.13;5015416;28;20058;-71
2022/07/24 07:35:38;;;;;;;8.85;5.68;;;;;;;27.05;55.09;99146.75;5001941;28;20048;-72
2022/07/24 07:38:23;;;;;;;7.90;6.65;;;;;;;26.70;56.95;99147.72;5019145;28;20042;-72
2022/07/24 07:41:08;;;;;;;9.65;6.47;;;;;;;26.38;57.21;99145.50;5016718;28;20069;-73
2022/07/24 07:43:52;;;;;;;8.75;6.68;;;;;;;27.24;56.05;99147.81;5014541;28;20061;-73
2022/07/24 07:46:38;;;;;;;8.65;6.22;;;;;;;28.12;53.62;99149.63;5014052;28;20041;-72
2022/07/24 07:49:23;;;;;;;8.80;6.15;;;;;;;27.72;51.87;99145.97;5000934;28;20415;-70
2022/07/24 07:52:07;;;;;;;7.97;5.60;;;;;;;27.94;52.61;99151.13;4999377;28;20046;-72
2022/07/24 07:54:53;;;;;;;7.97;5.85;;;;;;;28.17;52.25;99145.25;5013851;28;20176;-73
2022/07/24 07:57:41;;;;;;;9.43;6.47;;;;;;;27.46;54.08;99150.31;5013674;28;20034;-70
2022/07/24 08:00:25;;;;;;;8.13;5.90;;;;;;;27.61;55.50;99151.97;5027623;28;20045;-71
2022/07/24 08:03:10;;;;;;;7.47;6.35;;;;;;;27.59;53.09;99145.94;5014404;28;20042;-71
2022/07/24 08:05:55;;;;;;;6.78;5.22;;;;;;;27.09;54.61;99148.03;5013618;28;20037;-71
2022/07/24 08:08:40;;;;;;;8.70;6.40;;;;;;;26.83;56.03;99154.97;5016812;28;20033;-72
2022/07/24 08:11:24;;;;;;;7.70;5.88;;;;;;;26.79;55.88;99151.84;5013602;28;20490;-69
2022/07/24 08:14:09;;;;;;;6.72;5.40;;;;;;;27.37;51.94;99155.06;5012997;28;20140;-71
2022/07/24 08:16:54;;;;;;;9.10;6.35;;;;;;;27.44;52.45;99157.75;5013875;28;20426;-71
2022/07/24 08:19:38;;;;;;;7.53;5.40;;;;;;;28.99;49.85;99161.91;5012230;28;20061;-71
2022/07/24 08:22:23;;;;;;;9.68;5.72;;;;;;;29.23;46.80;99162.16;5012231;28;20049;-73
2022/07/24 08:25:08;;;;;;;7.47;5.53;;;;;;;27.77;49.87;99156.09;5012545;28;20048;-72
2022/07/24 08:27:53;;;;;;;9.05;5.75;;;;;;;28.13;49.50;99154.81;5025723;28;20042;-73
2022/07/24 08:30:39;;;;;;;8.27;5.65;;;;;;;28.13;48.67;99151.28;4999453;28;20037;-71
2022/07/24 08:33:42;;;;;;;7.80;5.07;;;;;;;28.62;47.37;99153.59;5023028;28;20187;-70
2022/07/24 08:36:27;;;;;;;8.02;5.53;;;;;;;29.27;49.97;99160.69;5012572;28;20088;-73
2022/07/24 08:39:12;;;;;;;9.55;5.43;;;;;;;29.71;45.20;99148.31;5013539;28;20042;-72
2022/07/24 08:41:57;;;;;;;9.73;5.70;;;;;;;30.13;44.52;99148.50;5012840;28;20442;-71
2022/07/24 08:44:42;;;;;;;7.07;4.78;;;;;;;30.57;45.44;99158.38;5011939;28;20045;-71
2022/07/24 08:47:34;;;;;;;6.13;5.10;;;;;;;31.01;41.42;99151.16;5025156;28;20034;-71
2022/07/24 08:50:19;;;;;;;6.93;4.70;;;;;;;30.03;44.98;99145.47;5025914;28;20120;-70
2022/07/24 08:53:04;;;;;;;7.72;4.88;;;;;;;29.92;43.35;99154.34;5021788;28;20034;-69
2022/07/24 08:55:49;;;;;;;6.88;5.18;;;;;;;30.60;43.19;99155.22;4999563;28;20488;-69
2022/07/24 08:58:38;;;;;;;5.90;4.65;;;;;;;29.13;46.86;99159.13;5025790;28;20038;-69
2022/07/24 09:01:22;;;;;;;7.72;5.57;;;;;;;29.23;45.15;99158.66;4999236;28;20562;-69
2022/07/24 09:04:55;;;;;;;5.53;4.30;;;;;;;29.29;40.24;99157.78;5000306;28;20045;-70
2022/07/24 09:07:41;;;;;;;5.20;4.05;;;;;;;29.59;38.99;99162.53;4987076;28;20489;-71
2022/07/24 09:10:29;;;;;;;5.30;4.07;;;;;;;30.63;40.22;99151.25;5011289;28;20038;-71
2022/07/24 09:13:17;;;;;;;7.88;4.45;;;;;;;29.43;41.26;99160.38;5023968;28;20053;-70
2022/07/24 09:16:02;;;;;;;6.85;3.97;;;;;;;30.27;38.36;99142.97;5000206;28;20045;-71
2022/07/24 09:18:47;;;;;;;5.00;4.28;;;;;;;30.59;39.29;99148.16;5012510;28;20041;-71
2022/07/24 09:21:34;;;;;;;6.32;4.22;;;;;;;31.89;36.90;99158.66;5011253;28;20482;-73
2022/07/24 09:24:21;;;;;;;5.65;4.03;;;;;;;32.59;33.88;99149.00;5012741;28;20066;-71
2022/07/24 09:27:14;;;;;;;5.03;3.55;;;;;;;32.10;32.14;99145.59;5010488;28;20026;-70
2022/07/24 09:29:59;;;;;;;5.10;2.72;;;;;;;32.40;33.29;99151.88;5012196;28;20117;-70
2022/07/24 09:32:53;;;;;;;4.47;2.60;;;;;;;32.73;29.14;99158.50;5011723;28;20080;-69
2022/07/24 09:35:40;;;;;;;5.03;3.72;;;;;;;33.38;30.33;99154.69;4997287;28;20042;-70
2022/07/24 09:38:26;;;;;;;4.57;3.10;;;;;;;33.13;29.75;99151.34;5011945;28;20049;-68
2022/07/24 09:41:11;;;;;;;4.72;3.20;;;;;;;32.25;30.94;99153.19;5012409;28;20037;-70
2022/07/24 09:44:00;;;;;;;5.55;2.95;;;;;;;32.88;30.28;99152.53;5011656;28;20471;-69
2022/07/24 09:46:54;;;;;;;3.97;3.20;;;;;;;32.56;33.60;99151.13;5011420;28;20103;-69
2022/07/24 09:49:40;;;;;;;6.32;3.38;;;;;;;31.62;35.15;99161.03;5001324;28;20096;-69
2022/07/24 09:52:32;;;;;;;4.03;3.47;;;;;;;32.05;32.79;99154.44;5006996;28;20046;-69
2022/07/24 09:55:24;;;;;;;5.13;3.15;;;;;;;31.71;32.60;99156.91;5012249;28;20045;-69
2022/07/24 09:58:18;;;;;;;3.95;3.10;;;;;;;31.65;33.91;99157.84;5014593;28;20402;-70
2022/07/24 10:01:06;;;;;;;5.40;3.10;;;;;;;31.47;32.54;99146.91;5010209;28;20511;-69
2022/07/24 10:03:53;;;;;;;4.40;3.25;;;;;;;30.44;38.12;99145.88;5010547;28;20034;-69
2022/07/24 10:06:40;;;;;;;5.35;3.22;;;;;;;32.65;36.32;99139.91;5012162;28;20077;-69
2022/07/24 10:09:28;;;;;;;4.50;3.22;;;;;;;33.94;29.78;99143.06;5000686;28;20109;-70
2022/07/24 10:12:19;;;;;;;4.95;3.45;;;;;;;33.62;33.15;99141.78;5012998;28;20037;-70
2022/07/24 10:15:05;;;;;;;4.60;3.13;;;;;;;31.65;35.54;99144.31;5014551;28;20042;-70
2022/07/24 10:18:24;;;;;;;4.47;3.05;;;;;;;30.78;32.15;99145.44;5001141;28;20393;-69
2022/07/24 10:21:12;;;;;;;4.53;3.00;;;;;;;32.49;30.51;99136.88;5003573;28;20054;-70
2022/07/24 10:24:03;;;;;;;4.32;3.00;;;;;;;33.26;28.99;99133.09;4985114;28;20038;-70
2022/07/24 10:26:50;;;;;;;3.40;2.75;;;;;;;33.85;29.96;99131.00;5011185;28;20064;-70
2022/07/24 10:29:35;;;;;;;4.47;3.13;;;;;;;34.55;29.16;99118.78;5010733;28;20418;-70
2022/07/24 10:32:21;;;;;;;3.40;2.90;;;;;;;33.35;28.34;99125.34;5004192;28;20057;-69
2022/07/24 10:35:19;;;;;;;4.03;2.95;;;;;;;33.00;28.66;99128.03;5015005;28;20467;-70
2022/07/24 10:38:19;;;;;;;4.25;2.47;;;;;;;33.39;30.19;99129.22;5011745;28;20394;-69
2022/07/24 10:41:14;;;;;;;3.53;2.58;;;;;;;33.09;32.80;99125.78;5000708;28;20048;-70
2022/07/24 10:44:19;;;;;;;4.60;3.25;;;;;;;33.15;31.47;99129.41;5017006;28;20701;-70
2022/07/24 10:47:04;;;;;;;3.78;2.50;;;;;;;33.28;33.86;99125.53;5016728;28;20046;-68
2022/07/24 10:49:50;;;;;;;7.53;2.90;;;;;;;34.39;28.24;99114.00;5017923;28;20053;-69
2022/07/24 10:52:40;;;;;;;3.05;2.65;;;;;;;34.71;33.59;99109.72;5017542;28;20493;-69
2022/07/24 10:55:33;;;;;;;3.00;2.35;;;;;;;35.03;28.73;99099.91;5017218;28;20527;-69
2022/07/24 10:58:21;;;;;;;4.55;2.40;;;;;;;35.87;28.14;99107.59;5018094;28;20096;-70
2022/07/24 11:01:28;;;;;;;3.97;2.45;;;;;;;35.42;26.90;99108.94;5017191;28;20466;-69
2022/07/24 11:04:19;;;;;;;3.08;2.50;;;;;;;34.58;25.32;99104.66;5028361;28;20426;-69
2022/07/24 11:07:11;;;;;;;4.20;2.60;;;;;;;34.79;26.14;99105.72;5018100;28;20521;-69
2022/07/24 11:10:07;;;;;;;3.20;2.15;;;;;;;34.73;25.36;99104.03;5016476;28;20045;-69
2022/07/24 11:12:52;;;;;;;2.30;2.08;;;;;;;35.74;27.33;99094.44;5016308;28;20470;-69
2022/07/24 11:16:14;;;;;;;3.38;2.40;;;;;;;35.83;28.98;99097.47;5017653;28;20160;-68
2022/07/24 11:18:59;;;;;;;3.63;2.40;;;;;;;35.87;29.26;99101.31;5010473;28;20049;-69
2022/07/24 11:21:47;;;;;;;4.50;2.10;;;;;;;36.13;23.10;99095.94;5016759;28;20038;-68
2022/07/24 11:24:31;;;;;;;3.58;2.55;;;;;;;36.82;22.53;99093.09;5016871;28;20475;-68
2022/07/24 11:27:18;;;;;;;2.60;1.98;;;;;;;37.22;22.52;99090.66;5016161;28;20045;-66
2022/07/24 11:30:03;;;;;;;2.78;2.15;;;;;;;36.85;23.67;99086.31;5013620;28;20038;-67
2022/07/24 11:32:49;;;;;;;3.05;2.08;;;;;;;37.02;22.84;99090.66;5017299;28;20459;-67
2022/07/24 11:35:35;;;;;;;5.15;2.20;;;;;;;35.02;24.01;99096.41;5004754;28;20046;-67
2022/07/24 11:38:28;;;;;;;2.70;2.08;;;;;;;34.91;27.26;99072.91;5016384;28;20046;-69
2022/07/24 11:41:14;;;;;;;2.75;2.00;;;;;;;33.99;25.04;99077.94;5003046;28;20056;-66
2022/07/24 11:43:58;;;;;;;3.85;2.10;;;;;;;33.42;24.63;99090.72;5017036;28;20041;-68
2022/07/24 11:46:43;;;;;;;2.72;1.80;;;;;;;34.00;25.16;99079.56;5016864;28;20068;-67
2022/07/24 11:49:28;;;;;;;4.63;2.00;;;;;;;34.66;22.60;99071.56;5016919;28;20046;-68
2022/07/24 11:52:35;;;;;;;2.58;2.00;;;;;;;34.15;24.61;99078.94;5015874;28;20041;-68
2022/07/24 11:55:24;;;;;;;2.35;1.92;;;;;;;35.23;24.69;99071.25;5011939;28;20105;-66
2022/07/24 11:58:09;;;;;;;2.10;1.60;;;;;;;36.76;25.74;99064.19;5014622;28;20052;-68
2022/07/24 12:00:53;;;;;;;2.13;1.55;;;;;;;37.19;22.35;99066.63;5027613;28;20749;-68
2022/07/24 12:03:49;;;;;;;2.15;1.50;;;;;;;37.26;23.57;99062.81;5017068;28;20044;-67
2022/07/24 12:06:33;;;;;;;2.90;2.10;;;;;;;37.62;19.94;99061.88;5020074;28;20041;-67
2022/07/24 12:09:19;;;;;;;3.28;1.90;;;;;;;37.52;22.54;99055.38;5013022;28;20048;-66
2022/07/24 12:12:04;;;;;;;3.13;2.00;;;;;;;37.07;21.99;99061.44;5013135;28;20073;-66
2022/07/24 12:14:51;;;;;;;2.47;1.48;;;;;;;37.47;21.82;99055.38;5024475;28;20553;-67
2022/07/24 12:17:58;;;;;;;2.40;1.73;;;;;;;36.91;19.56;99052.47;4999420;28;20038;-67
2022/07/24 12:20:44;;;;;;;2.22;1.48;;;;;;;37.67;24.74;99049.00;5013723;28;20509;-68
2022/07/24 12:23:30;;;;;;;3.10;1.70;;;;;;;38.34;25.93;99040.81;5025962;28;20056;-67
2022/07/24 12:26:14;;;;;;;2.40;1.60;;;;;;;37.69;24.09;99037.81;5012307;28;20112;-66
2022/07/24 12:29:11;;;;;;;2.42;1.58;;;;;;;38.34;21.05;99038.88;5001260;28;20497;-68
2022/07/24 12:32:18;;;;;;;2.47;1.92;;;;;;;37.51;20.13;99047.47;5013017;28;20060;-67
2022/07/24 12:35:10;;;;;;;2.20;1.70;;;;;;;38.66;24.59;99050.41;5012648;28;20034;-67
2022/07/24 12:37:56;;;;;;;3.15;1.40;;;;;;;38.35;20.80;99037.78;5013849;28;20116;-66
2022/07/24 12:40:40;;;;;;;2.55;1.65;;;;;;;35.75;20.59;99045.16;5012730;28;20030;-66
2022/07/24 12:43:27;;;;;;;3.00;1.35;;;;;;;36.36;21.15;99044.78;5012771;28;20057;-65
2022/07/24 12:46:12;;;;;;;2.13;1.63;;;;;;;35.45;20.99;99033.00;5002635;28;20068;-66
2022/07/24 12:48:57;;;;;;;2.20;1.60;;;;;;;36.22;28.65;99031.66;5013391;28;20114;-66
2022/07/24 12:51:59;;;;;;;1.88;1.60;;;;;;;36.91;26.74;99027.91;5015696;28;20042;-66
2022/07/24 12:54:46;;;;;;;2.38;1.48;;;;;;;36.97;20.24;99029.53;5004414;28;20041;-64
2022/07/24 12:57:33;;;;;;;4.13;1.42;;;;;;;35.93;27.00;99028.56;5013303;28;20029;-65
2022/07/24 13:00:17;;;;;;;2.00;1.50;;;;;;;35.18;25.80;99020.31;5012649;28;20540;-65
2022/07/24 13:03:02;;;;;;;2.10;1.52;;;;;;;34.24;21.71;99024.16;5012253;28;20104;-66
2022/07/24 13:05:55;;;;;;;1.77;1.48;;;;;;;35.02;21.53;99024.84;5009430;28;20033;-67